createdAt,value
2018-03-14T00:00:41.048Z,1008.13
2018-03-14T00:01:41.398Z,1008.13
2018-03-14T00:02:42.055Z,1008.20
2018-03-14T00:03:41.152Z,1008.19
2018-03-14T00:04:41.121Z,1008.16
2018-03-14T00:05:41.659Z,1008.17
2018-03-14T00:06:41.145Z,1008.17
2018-03-14T00:07:41.257Z,1008.17
2018-03-14T00:08:41.467Z,1008.19
2018-03-14T00:09:41.350Z,1008.17
2018-03-14T00:10:41.328Z,1008.22
2018-03-14T00:11:41.613Z,1008.20
2018-03-14T00:12:41.465Z,1008.22
2018-03-14T00:13:41.413Z,1008.21
2018-03-14T00:14:41.773Z,1008.20
2018-03-14T00:15:41.556Z,1008.20
2018-03-14T00:16:41.496Z,1008.17
2018-03-14T00:17:41.423Z,1008.20
2018-03-14T00:18:41.680Z,1008.23
2018-03-14T00:19:41.659Z,1008.23
2018-03-14T00:20:41.968Z,1008.21
2018-03-14T00:21:41.589Z,1008.14
2018-03-14T00:22:41.609Z,1008.10
2018-03-14T00:23:41.746Z,1008.13
2018-03-14T00:24:41.629Z,1008.18
2018-03-14T00:25:43.610Z,1008.15
2018-03-14T00:26:42.135Z,1008.17
2018-03-14T00:27:41.872Z,1008.15
2018-03-14T00:28:41.821Z,1008.17
2018-03-14T00:29:41.846Z,1008.16
2018-03-14T00:30:41.904Z,1008.24
2018-03-14T00:31:41.928Z,1008.14
2018-03-14T00:32:42.350Z,1008.18
2018-03-14T00:33:41.937Z,1008.18
2018-03-14T00:34:42.027Z,1008.20
2018-03-14T00:35:42.683Z,1008.11
2018-03-14T00:36:42.138Z,1008.17
2018-03-14T00:37:42.424Z,1008.21
2018-03-14T00:38:42.543Z,1008.17
2018-03-14T00:39:42.168Z,1008.16
2018-03-14T00:40:42.182Z,1008.16
2018-03-14T00:41:42.900Z,1008.18
2018-03-14T00:42:42.334Z,1008.21
2018-03-14T00:43:43.017Z,1008.22
2018-03-14T00:44:42.695Z,1008.22
2018-03-14T00:45:42.421Z,1008.24
2018-03-14T00:46:42.813Z,1008.28
2018-03-14T00:47:42.792Z,1008.26
2018-03-14T00:48:42.451Z,1008.26
2018-03-14T00:49:42.509Z,1008.23
2018-03-14T00:50:42.819Z,1008.18
2018-03-14T00:51:42.494Z,1008.19
2018-03-14T00:52:42.603Z,1008.17
2018-03-14T00:53:42.683Z,1008.17
2018-03-14T00:55:42.639Z,1008.17
2018-03-14T00:56:43.156Z,1008.18
2018-03-14T00:57:42.807Z,1008.23
2018-03-14T00:58:42.825Z,1008.28
2018-03-14T00:59:42.765Z,1008.23
2018-03-14T01:00:42.892Z,1008.25
2018-03-14T01:01:42.811Z,1008.26
2018-03-14T01:02:43.153Z,1008.27
2018-03-14T01:03:42.876Z,1008.28
2018-03-14T01:04:42.931Z,1008.23
2018-03-14T01:05:42.959Z,1008.23
2018-03-14T01:06:42.947Z,1008.21
2018-03-14T01:07:42.991Z,1008.20
2018-03-14T01:08:43.403Z,1008.18
2018-03-14T01:09:43.035Z,1008.20
2018-03-14T01:10:43.094Z,1008.20
2018-03-14T01:11:43.751Z,1008.16
2018-03-14T01:12:43.758Z,1008.19
2018-03-14T01:13:43.248Z,1008.15
2018-03-14T01:14:43.498Z,1008.18
2018-03-14T01:15:43.333Z,1008.19
2018-03-14T01:16:43.468Z,1008.19
2018-03-14T01:17:44.189Z,1008.13
2018-03-14T01:18:43.815Z,1008.14
2018-03-14T01:19:43.448Z,1008.14
2018-03-14T01:20:43.690Z,1008.11
2018-03-14T01:21:44.702Z,1008.14
2018-03-14T01:22:43.434Z,1008.11
2018-03-14T01:23:44.642Z,1008.10
2018-03-14T01:24:43.633Z,1008.11
2018-03-14T01:25:44.699Z,1008.10
2018-03-14T01:26:43.917Z,1008.08
2018-03-14T01:27:43.734Z,1008.07
2018-03-14T01:28:43.608Z,1008.08
2018-03-14T01:29:43.696Z,1008.04
2018-03-14T01:30:43.689Z,1008.03
2018-03-14T01:31:43.874Z,1008.06
2018-03-14T01:32:44.094Z,1008.04
2018-03-14T01:33:43.980Z,1008.04
2018-03-14T01:34:44.067Z,1008.04
2018-03-14T01:35:43.974Z,1008.04
2018-03-14T01:36:43.873Z,1008.06
2018-03-14T01:37:43.955Z,1008.04
2018-03-14T01:38:44.631Z,1008.04
2018-03-14T01:39:43.976Z,1008.04
2018-03-14T01:40:44.124Z,1008.05
2018-03-14T01:41:43.965Z,1008.05
2018-03-14T01:42:44.037Z,1008.05
2018-03-14T01:43:44.171Z,1008.02
2018-03-14T01:44:44.425Z,1008.01
2018-03-14T01:45:44.231Z,1008.02
2018-03-14T01:46:44.110Z,1008.01
2018-03-14T01:47:44.224Z,1007.99
2018-03-14T01:48:44.192Z,1008.02
2018-03-14T01:49:44.274Z,1008.00
2018-03-14T01:50:44.593Z,1007.96
2018-03-14T01:51:44.344Z,1007.96
2018-03-14T01:52:44.410Z,1007.96
2018-03-14T01:53:44.640Z,1007.94
2018-03-14T01:54:44.456Z,1007.93
2018-03-14T01:56:45.630Z,1007.94
2018-03-14T01:57:45.628Z,1007.94
2018-03-14T01:58:44.520Z,1007.93
2018-03-14T01:59:45.590Z,1007.94
2018-03-14T02:00:44.606Z,1007.92
2018-03-14T02:01:44.601Z,1007.93
2018-03-14T02:02:44.988Z,1007.95
2018-03-14T02:03:44.852Z,1007.94
2018-03-14T02:04:44.750Z,1007.95
2018-03-14T02:05:44.718Z,1007.97
2018-03-14T02:06:44.764Z,1007.99
2018-03-14T02:07:44.782Z,1007.96
2018-03-14T02:08:45.154Z,1007.94
2018-03-14T02:09:44.875Z,1007.97
2018-03-14T02:10:45.275Z,1007.98
2018-03-14T02:11:44.953Z,1007.99
2018-03-14T02:12:44.944Z,1008.03
2018-03-14T02:13:44.973Z,1007.98
2018-03-14T02:14:45.300Z,1008.01
2018-03-14T02:15:45.080Z,1007.98
2018-03-14T02:16:45.735Z,1007.98
2018-03-14T02:17:45.062Z,1007.99
2018-03-14T02:18:46.009Z,1007.98
2018-03-14T02:19:45.209Z,1008.00
2018-03-14T02:20:45.546Z,1007.98
2018-03-14T02:21:45.168Z,1008.00
2018-03-14T02:22:46.217Z,1007.99
2018-03-14T02:23:45.226Z,1008.01
2018-03-14T02:24:45.334Z,1007.98
2018-03-14T02:25:45.295Z,1007.99
2018-03-14T02:26:45.679Z,1008.01
2018-03-14T02:27:45.409Z,1007.97
2018-03-14T02:28:45.412Z,1007.96
2018-03-14T02:29:45.553Z,1008.01
2018-03-14T02:30:45.441Z,1007.97
2018-03-14T02:31:45.551Z,1007.94
2018-03-14T02:32:45.514Z,1007.94
2018-03-14T02:33:45.987Z,1007.94
2018-03-14T02:34:45.605Z,1007.96
2018-03-14T02:35:45.632Z,1007.94
2018-03-14T02:36:45.665Z,1007.93
2018-03-14T02:37:46.903Z,1007.93
2018-03-14T02:38:46.557Z,1007.92
2018-03-14T02:39:46.100Z,1007.93
2018-03-14T02:40:46.988Z,1007.92
2018-03-14T02:41:45.766Z,1007.91
2018-03-14T02:42:45.815Z,1007.91
2018-03-14T02:43:45.825Z,1007.93
2018-03-14T02:44:45.925Z,1007.87
2018-03-14T02:45:46.252Z,1007.87
2018-03-14T02:46:45.964Z,1007.90
2018-03-14T02:47:46.037Z,1007.88
2018-03-14T02:48:46.033Z,1007.91
2018-03-14T02:49:46.011Z,1007.91
2018-03-14T02:50:47.254Z,1007.90
2018-03-14T02:51:46.386Z,1007.91
2018-03-14T02:52:46.104Z,1007.91
2018-03-14T02:53:46.576Z,1007.89
2018-03-14T02:54:46.226Z,1007.88
2018-03-14T02:55:46.257Z,1007.91
2018-03-14T02:56:46.296Z,1007.87
2018-03-14T02:57:46.538Z,1007.89
2018-03-14T02:58:46.277Z,1007.91
2018-03-14T02:59:46.342Z,1007.89
2018-03-14T03:00:46.614Z,1007.86
2018-03-14T03:01:46.448Z,1007.90
2018-03-14T03:02:46.424Z,1007.91
2018-03-14T03:03:46.751Z,1007.88
2018-03-14T03:04:46.473Z,1007.89
2018-03-14T03:05:46.552Z,1007.85
2018-03-14T03:06:46.594Z,1007.88
2018-03-14T03:07:46.618Z,1007.90
2018-03-14T03:08:46.640Z,1007.87
2018-03-14T03:09:47.015Z,1007.86
2018-03-14T03:10:47.097Z,1007.88
2018-03-14T03:11:47.176Z,1007.91
2018-03-14T03:12:46.724Z,1007.91
2018-03-14T03:13:47.533Z,1007.93
2018-03-14T03:14:46.773Z,1007.94
2018-03-14T03:15:47.266Z,1007.92
2018-03-14T03:16:46.895Z,1007.95
2018-03-14T03:17:46.924Z,1007.96
2018-03-14T03:18:46.900Z,1007.98
2018-03-14T03:19:47.010Z,1008.00
2018-03-14T03:20:46.963Z,1007.98
2018-03-14T03:21:47.390Z,1007.98
2018-03-14T03:22:47.002Z,1007.98
2018-03-14T03:23:47.080Z,1007.97
2018-03-14T03:24:47.538Z,1007.95
2018-03-14T03:25:47.103Z,1007.94
2018-03-14T03:26:47.246Z,1007.97
2018-03-14T03:27:47.531Z,1007.94
2018-03-14T03:28:47.310Z,1007.97
2018-03-14T03:29:47.273Z,1007.97
2018-03-14T03:30:47.355Z,1007.96
2018-03-14T03:31:47.280Z,1007.96
2018-03-14T03:32:47.339Z,1007.97
2018-03-14T03:33:47.702Z,1008.00
2018-03-14T03:34:47.384Z,1008.03
2018-03-14T03:35:47.472Z,1007.99
2018-03-14T03:36:47.536Z,1008.00
2018-03-14T03:37:47.484Z,1007.98
2018-03-14T03:38:47.612Z,1008.02
2018-03-14T03:39:47.855Z,1008.04
2018-03-14T03:40:48.048Z,1008.02
2018-03-14T03:41:47.819Z,1008.03
2018-03-14T03:42:47.612Z,1008.02
2018-03-14T03:43:47.640Z,1008.02
2018-03-14T03:44:47.698Z,1008.01
2018-03-14T03:45:48.094Z,1008.01
2018-03-14T03:46:47.790Z,1008.02
2018-03-14T03:47:48.327Z,1008.01
2018-03-14T03:48:47.866Z,1008.00
2018-03-14T03:49:47.936Z,1008.00
2018-03-14T03:50:47.879Z,1008.01
2018-03-14T03:51:48.321Z,1008.03
2018-03-14T03:52:47.961Z,1007.97
2018-03-14T03:53:47.975Z,1007.99
2018-03-14T03:54:47.976Z,1007.99
2018-03-14T03:55:48.074Z,1007.98
2018-03-14T03:56:48.432Z,1007.98
2018-03-14T03:57:48.423Z,1007.99
2018-03-14T03:59:48.139Z,1007.97
2018-03-14T04:00:48.246Z,1008.02
2018-03-14T04:01:48.201Z,1008.01
2018-03-14T04:02:48.284Z,1007.96
2018-03-14T04:03:49.614Z,1008.02
2018-03-14T04:05:48.318Z,1008.04
2018-03-14T04:06:48.392Z,1008.00
2018-03-14T04:07:48.556Z,1008.02
2018-03-14T04:08:48.874Z,1008.02
2018-03-14T04:09:48.786Z,1008.02
2018-03-14T04:10:48.490Z,1007.98
2018-03-14T04:11:48.512Z,1007.99
2018-03-14T04:12:48.514Z,1008.01
2018-03-14T04:13:49.063Z,1008.02
2018-03-14T04:14:48.601Z,1008.02
2018-03-14T04:15:48.938Z,1008.03
2018-03-14T04:16:48.782Z,1008.04
2018-03-14T04:17:48.693Z,1008.04
2018-03-14T04:18:48.788Z,1008.05
2018-03-14T04:19:48.718Z,1008.03
2018-03-14T04:20:48.881Z,1008.01
2018-03-14T04:21:50.000Z,1008.00
2018-03-14T04:22:48.910Z,1008.02
2018-03-14T04:23:49.285Z,1008.02
2018-03-14T04:24:48.878Z,1008.02
2018-03-14T04:25:48.899Z,1008.02
2018-03-14T04:26:48.963Z,1008.04
2018-03-14T04:27:49.333Z,1008.03
2018-03-14T04:28:49.040Z,1008.03
2018-03-14T04:29:49.108Z,1008.11
2018-03-14T04:30:49.103Z,1008.07
2018-03-14T04:31:49.203Z,1008.11
2018-03-14T04:32:49.274Z,1008.11
2018-03-14T04:33:49.941Z,1008.14
2018-03-14T04:34:49.180Z,1008.14
2018-03-14T04:35:49.201Z,1008.12
2018-03-14T04:36:50.090Z,1008.10
2018-03-14T04:37:49.384Z,1008.14
2018-03-14T04:38:50.322Z,1008.16
2018-03-14T04:39:49.682Z,1008.12
2018-03-14T04:40:49.386Z,1008.11
2018-03-14T04:41:49.446Z,1008.12
2018-03-14T04:42:49.924Z,1008.13
2018-03-14T04:43:49.604Z,1008.13
2018-03-14T04:44:49.497Z,1008.11
2018-03-14T04:45:49.861Z,1008.09
2018-03-14T04:46:49.617Z,1008.09
2018-03-14T04:47:49.643Z,1008.10
2018-03-14T04:48:49.673Z,1008.11
2018-03-14T04:49:49.652Z,1008.09
2018-03-14T04:50:49.668Z,1008.07
2018-03-14T04:51:50.073Z,1008.10
2018-03-14T04:52:49.784Z,1008.09
2018-03-14T04:53:49.792Z,1008.12
2018-03-14T04:54:49.868Z,1008.14
2018-03-14T04:55:49.895Z,1008.12
2018-03-14T04:56:49.858Z,1008.10
2018-03-14T04:57:50.162Z,1008.14
2018-03-14T04:58:49.932Z,1008.14
2018-03-14T04:59:49.948Z,1008.13
2018-03-14T05:00:50.072Z,1008.15
2018-03-14T05:01:50.108Z,1008.17
2018-03-14T05:02:50.391Z,1008.14
2018-03-14T05:03:50.451Z,1008.15
2018-03-14T05:04:50.226Z,1008.11
2018-03-14T05:05:50.223Z,1008.09
2018-03-14T05:06:50.208Z,1008.12
2018-03-14T05:07:50.177Z,1008.08
2018-03-14T05:08:50.338Z,1008.12
2018-03-14T05:09:50.673Z,1008.14
2018-03-14T05:10:50.272Z,1008.12
2018-03-14T05:11:50.353Z,1008.18
2018-03-14T05:12:50.351Z,1008.16
2018-03-14T05:13:50.483Z,1008.18
2018-03-14T05:14:50.390Z,1008.18
2018-03-14T05:15:50.763Z,1008.20
2018-03-14T05:16:51.116Z,1008.20
2018-03-14T05:17:50.510Z,1008.20
2018-03-14T05:18:50.595Z,1008.17
2018-03-14T05:19:50.539Z,1008.16
2018-03-14T05:20:50.603Z,1008.19
2018-03-14T05:21:51.118Z,1008.21
2018-03-14T05:22:50.621Z,1008.22
2018-03-14T05:23:50.779Z,1008.21
2018-03-14T05:24:50.856Z,1008.20
2018-03-14T05:25:50.778Z,1008.18
2018-03-14T05:26:51.221Z,1008.20
2018-03-14T05:27:51.123Z,1008.18
2018-03-14T05:28:50.825Z,1008.18
2018-03-14T05:29:50.977Z,1008.19
2018-03-14T05:30:50.900Z,1008.16
2018-03-14T05:31:51.010Z,1008.18
2018-03-14T05:32:50.945Z,1008.19
2018-03-14T05:33:51.373Z,1008.13
2018-03-14T05:34:51.155Z,1008.22
2018-03-14T05:35:51.073Z,1008.16
2018-03-14T05:36:51.743Z,1008.17
2018-03-14T05:37:51.159Z,1008.15
2018-03-14T05:38:51.306Z,1008.20
2018-03-14T05:39:52.410Z,1008.15
2018-03-14T05:40:51.230Z,1008.14
2018-03-14T05:41:51.265Z,1008.16
2018-03-14T05:42:51.338Z,1008.19
2018-03-14T05:43:51.378Z,1008.20
2018-03-14T05:44:51.312Z,1008.20
2018-03-14T05:45:51.714Z,1008.20
2018-03-14T05:46:51.427Z,1008.22
2018-03-14T05:47:51.454Z,1008.18
2018-03-14T05:48:52.219Z,1008.18
2018-03-14T05:49:51.486Z,1008.19
2018-03-14T05:50:52.272Z,1008.20
2018-03-14T05:51:52.661Z,1008.26
2018-03-14T05:52:52.520Z,1008.25
2018-03-14T05:53:51.665Z,1008.26
2018-03-14T05:54:51.582Z,1008.27
2018-03-14T05:55:51.687Z,1008.26
2018-03-14T05:56:51.726Z,1008.28
2018-03-14T05:57:52.185Z,1008.32
2018-03-14T05:58:51.760Z,1008.28
2018-03-14T05:59:51.960Z,1008.29
2018-03-14T06:00:51.854Z,1008.25
2018-03-14T06:01:51.911Z,1008.26
2018-03-14T06:02:51.890Z,1008.26
2018-03-14T06:03:52.283Z,1008.31
2018-03-14T06:04:52.404Z,1008.29
2018-03-14T06:05:52.597Z,1008.30
2018-03-14T06:06:52.070Z,1008.34
2018-03-14T06:07:52.024Z,1008.39
2018-03-14T06:08:52.057Z,1008.36
2018-03-14T06:09:52.214Z,1008.44
2018-03-14T06:10:52.077Z,1008.41
2018-03-14T06:11:52.203Z,1008.41
2018-03-14T06:12:52.251Z,1008.44
2018-03-14T06:13:52.263Z,1008.40
2018-03-14T06:14:52.684Z,1008.41
2018-03-14T06:15:52.382Z,1008.45
2018-03-14T06:16:52.403Z,1008.49
2018-03-14T06:17:52.352Z,1008.48
2018-03-14T06:18:52.952Z,1008.51
2018-03-14T06:19:52.458Z,1008.51
2018-03-14T06:20:52.812Z,1008.52
2018-03-14T06:21:52.477Z,1008.51
2018-03-14T06:22:52.608Z,1008.52
2018-03-14T06:23:52.829Z,1008.54
2018-03-14T06:24:52.611Z,1008.51
2018-03-14T06:25:52.772Z,1008.52
2018-03-14T06:26:52.983Z,1008.55
2018-03-14T06:27:52.797Z,1008.55
2018-03-14T06:28:52.721Z,1008.60
2018-03-14T06:29:52.764Z,1008.62
2018-03-14T06:30:52.674Z,1008.67
2018-03-14T06:31:52.789Z,1008.66
2018-03-14T06:32:53.157Z,1008.69
2018-03-14T06:33:52.879Z,1008.68
2018-03-14T06:34:52.897Z,1008.67
2018-03-14T06:35:52.960Z,1008.66
2018-03-14T06:36:52.908Z,1008.65
2018-03-14T06:37:52.964Z,1008.66
2018-03-14T06:38:53.459Z,1008.65
2018-03-14T06:39:53.202Z,1008.67
2018-03-14T06:40:53.008Z,1008.66
2018-03-14T06:41:53.123Z,1008.72
2018-03-14T06:42:53.260Z,1008.69
2018-03-14T06:43:53.173Z,1008.66
2018-03-14T06:44:53.507Z,1008.67
2018-03-14T06:45:53.192Z,1008.67
2018-03-14T06:46:53.225Z,1008.67
2018-03-14T06:47:53.265Z,1008.65
2018-03-14T06:48:54.019Z,1008.67
2018-03-14T06:49:53.368Z,1008.67
2018-03-14T06:50:53.681Z,1008.66
2018-03-14T06:51:53.361Z,1008.62
2018-03-14T06:52:53.476Z,1008.67
2018-03-14T06:53:53.686Z,1008.70
2018-03-14T06:54:53.451Z,1008.68
2018-03-14T06:55:53.525Z,1008.70
2018-03-14T06:56:54.387Z,1008.71
2018-03-14T06:57:53.539Z,1008.73
2018-03-14T06:58:53.525Z,1008.71
2018-03-14T06:59:53.815Z,1008.74
2018-03-14T07:00:53.620Z,1008.73
2018-03-14T07:01:54.132Z,1008.71
2018-03-14T07:02:54.530Z,1008.79
2018-03-14T07:03:54.025Z,1008.79
2018-03-14T07:04:54.106Z,1008.83
2018-03-14T07:05:53.880Z,1008.82
2018-03-14T07:06:53.814Z,1008.82
2018-03-14T07:07:53.893Z,1008.86
2018-03-14T07:08:55.356Z,1008.79
2018-03-14T07:09:53.969Z,1008.82
2018-03-14T07:10:53.890Z,1008.84
2018-03-14T07:11:54.114Z,1008.82
2018-03-14T07:12:54.070Z,1008.81
2018-03-14T07:13:54.077Z,1008.81
2018-03-14T07:14:54.362Z,1008.81
2018-03-14T07:15:54.330Z,1008.83
2018-03-14T07:16:54.152Z,1008.80
2018-03-14T07:17:54.230Z,1008.80
2018-03-14T07:18:54.523Z,1008.80
2018-03-14T07:19:54.569Z,1008.80
2018-03-14T07:20:54.581Z,1008.77
2018-03-14T07:21:54.285Z,1008.75
2018-03-14T07:22:54.387Z,1008.74
2018-03-14T07:23:54.478Z,1008.79
2018-03-14T07:24:55.380Z,1008.74
2018-03-14T07:25:54.950Z,1008.78
2018-03-14T07:26:55.863Z,1008.74
2018-03-14T07:27:54.582Z,1008.76
2018-03-14T07:28:54.510Z,1008.83
2018-03-14T07:29:54.617Z,1008.78
2018-03-14T07:30:54.564Z,1008.79
2018-03-14T07:31:54.674Z,1008.78
2018-03-14T07:32:55.030Z,1008.76
2018-03-14T07:33:54.668Z,1008.76
2018-03-14T07:34:54.623Z,1008.78
2018-03-14T07:35:54.728Z,1008.76
2018-03-14T07:36:54.756Z,1008.77
2018-03-14T07:37:56.372Z,1008.76
2018-03-14T07:38:55.360Z,1008.74
2018-03-14T07:39:55.511Z,1008.76
2018-03-14T07:40:55.265Z,1008.76
2018-03-14T07:41:55.778Z,1008.74
2018-03-14T07:42:56.816Z,1008.75
2018-03-14T07:43:55.093Z,1008.77
2018-03-14T07:44:55.464Z,1008.79
2018-03-14T07:45:55.017Z,1008.82
2018-03-14T07:46:54.992Z,1008.80
2018-03-14T07:47:55.055Z,1008.83
2018-03-14T07:48:55.171Z,1008.83
2018-03-14T07:49:55.172Z,1008.84
2018-03-14T07:50:55.475Z,1008.86
2018-03-14T07:51:55.167Z,1008.83
2018-03-14T07:52:55.221Z,1008.87
2018-03-14T07:53:55.996Z,1008.87
2018-03-14T07:54:55.268Z,1008.89
2018-03-14T07:55:55.322Z,1008.86
2018-03-14T07:56:55.710Z,1008.82
2018-03-14T07:57:55.414Z,1008.87
2018-03-14T07:58:55.360Z,1008.86
2018-03-14T07:59:55.426Z,1008.87
2018-03-14T08:00:55.463Z,1008.87
2018-03-14T08:01:55.505Z,1008.88
2018-03-14T08:02:55.840Z,1008.89
2018-03-14T08:03:55.587Z,1008.89
2018-03-14T08:04:55.609Z,1008.92
2018-03-14T08:05:55.645Z,1008.91
2018-03-14T08:06:55.691Z,1008.94
2018-03-14T08:07:55.686Z,1008.91
2018-03-14T08:08:56.060Z,1008.96
2018-03-14T08:09:55.810Z,1008.93
2018-03-14T08:10:55.745Z,1008.93
2018-03-14T08:11:55.898Z,1008.90
2018-03-14T08:12:55.798Z,1008.90
2018-03-14T08:13:55.942Z,1008.87
2018-03-14T08:14:56.658Z,1008.83
2018-03-14T08:15:55.960Z,1008.83
2018-03-14T08:16:55.932Z,1008.85
2018-03-14T08:17:55.986Z,1008.88
2018-03-14T08:18:56.072Z,1008.84
2018-03-14T08:19:56.021Z,1008.84
2018-03-14T08:20:57.450Z,1008.84
2018-03-14T08:21:56.093Z,1008.87
2018-03-14T08:22:56.098Z,1008.85
2018-03-14T08:23:56.181Z,1008.86
2018-03-14T08:24:56.565Z,1008.84
2018-03-14T08:25:56.346Z,1008.85
2018-03-14T08:26:56.361Z,1008.86
2018-03-14T08:27:56.281Z,1008.87
2018-03-14T08:28:56.323Z,1008.83
2018-03-14T08:29:56.319Z,1008.84
2018-03-14T08:30:56.399Z,1008.84
2018-03-14T08:31:56.716Z,1008.86
2018-03-14T08:32:56.646Z,1008.88
2018-03-14T08:33:56.454Z,1008.88
2018-03-14T08:34:56.441Z,1008.86
2018-03-14T08:35:56.554Z,1008.88
2018-03-14T08:36:56.555Z,1008.87
2018-03-14T08:37:56.965Z,1008.83
2018-03-14T08:38:56.743Z,1008.84
2018-03-14T08:39:56.678Z,1008.86
2018-03-14T08:40:57.792Z,1008.84
2018-03-14T08:41:56.731Z,1008.84
2018-03-14T08:42:56.734Z,1008.84
2018-03-14T08:43:57.101Z,1008.84
2018-03-14T08:44:56.756Z,1008.82
2018-03-14T08:45:57.343Z,1008.85
2018-03-14T08:46:56.987Z,1008.84
2018-03-14T08:47:56.870Z,1008.86
2018-03-14T08:48:57.588Z,1008.90
2018-03-14T08:49:57.532Z,1008.89
2018-03-14T08:50:56.957Z,1008.93
2018-03-14T08:51:57.043Z,1008.88
2018-03-14T08:53:57.054Z,1008.88
2018-03-14T08:54:57.157Z,1008.84
2018-03-14T08:55:57.496Z,1008.89
2018-03-14T08:56:57.398Z,1008.89
2018-03-14T08:57:57.445Z,1008.89
2018-03-14T08:58:57.513Z,1008.89
2018-03-14T08:59:57.266Z,1008.86
2018-03-14T09:00:57.538Z,1008.86
2018-03-14T09:01:57.748Z,1008.91
2018-03-14T09:02:57.457Z,1008.90
2018-03-14T09:03:57.376Z,1008.90
2018-03-14T09:04:57.387Z,1008.93
2018-03-14T09:05:57.493Z,1008.94
2018-03-14T09:06:57.468Z,1009.00
2018-03-14T09:07:57.900Z,1008.96
2018-03-14T09:08:57.539Z,1008.96
2018-03-14T09:09:57.624Z,1008.97
2018-03-14T09:10:57.572Z,1008.96
2018-03-14T09:11:57.693Z,1008.95
2018-03-14T09:12:57.747Z,1008.93
2018-03-14T09:13:58.040Z,1008.91
2018-03-14T09:14:57.903Z,1008.86
2018-03-14T09:15:57.999Z,1008.90
2018-03-14T09:16:57.816Z,1008.87
2018-03-14T09:17:57.947Z,1008.86
2018-03-14T09:18:57.872Z,1008.86
2018-03-14T09:19:58.220Z,1008.84
2018-03-14T09:20:57.952Z,1008.88
2018-03-14T09:21:58.155Z,1008.90
2018-03-14T09:22:58.065Z,1008.90
2018-03-14T09:24:58.048Z,1008.87
2018-03-14T09:25:58.398Z,1008.85
2018-03-14T09:26:58.185Z,1008.86
2018-03-14T09:27:58.113Z,1008.88
2018-03-14T09:28:58.156Z,1008.86
2018-03-14T09:29:59.130Z,1008.88
2018-03-14T09:30:58.324Z,1008.88
2018-03-14T09:31:58.566Z,1008.88
2018-03-14T09:32:58.302Z,1008.94
2018-03-14T09:33:58.320Z,1008.94
2018-03-14T09:34:58.317Z,1008.94
2018-03-14T09:35:58.421Z,1008.97
2018-03-14T09:36:58.448Z,1008.97
2018-03-14T09:37:58.750Z,1008.94
2018-03-14T09:38:58.464Z,1008.88
2018-03-14T09:39:58.451Z,1008.90
2018-03-14T09:40:58.521Z,1008.91
2018-03-14T09:41:58.732Z,1008.93
2018-03-14T09:42:58.572Z,1008.90
2018-03-14T09:44:00.381Z,1008.93
2018-03-14T09:44:58.629Z,1008.94
2018-03-14T09:45:58.838Z,1008.94
2018-03-14T09:46:58.681Z,1008.94
2018-03-14T09:47:58.736Z,1008.98
2018-03-14T09:48:58.797Z,1008.95
2018-03-14T09:49:59.100Z,1008.94
2018-03-14T09:50:58.823Z,1008.92
2018-03-14T09:51:58.849Z,1008.92
2018-03-14T09:52:58.864Z,1008.91
2018-03-14T09:53:58.908Z,1008.93
2018-03-14T09:54:59.467Z,1008.96
2018-03-14T09:55:59.296Z,1008.97
2018-03-14T09:56:59.050Z,1008.95
2018-03-14T09:57:59.042Z,1008.98
2018-03-14T09:58:59.101Z,1008.96
2018-03-14T09:59:59.212Z,1008.99
2018-03-14T10:00:59.150Z,1008.99
2018-03-14T10:01:59.471Z,1008.99
2018-03-14T10:02:59.268Z,1009.00
2018-03-14T10:03:59.239Z,1008.99
2018-03-14T10:05:00.132Z,1008.97
2018-03-14T10:05:59.299Z,1008.94
2018-03-14T10:06:59.334Z,1008.95
2018-03-14T10:07:59.670Z,1008.91
2018-03-14T10:08:59.530Z,1008.92
2018-03-14T10:09:59.450Z,1008.91
2018-03-14T10:11:00.686Z,1008.95
2018-03-14T10:11:59.694Z,1008.94
2018-03-14T10:12:59.466Z,1008.97
2018-03-14T10:13:59.905Z,1008.97
2018-03-14T10:14:59.636Z,1008.96
2018-03-14T10:16:00.837Z,1008.96
2018-03-14T10:18:59.785Z,1008.89
2018-03-14T10:20:00.076Z,1008.87
2018-03-14T10:20:59.744Z,1008.89
2018-03-14T10:21:59.854Z,1008.86
2018-03-14T10:22:59.915Z,1008.82
2018-03-14T10:23:59.831Z,1008.81
2018-03-14T10:24:59.873Z,1008.81
2018-03-14T10:26:00.294Z,1008.81
2018-03-14T10:26:59.945Z,1008.83
2018-03-14T10:27:59.954Z,1008.80
2018-03-14T10:29:00.424Z,1008.80
2018-03-14T10:30:00.084Z,1008.78
2018-03-14T10:31:00.109Z,1008.75
2018-03-14T10:32:00.720Z,1008.73
2018-03-14T10:33:00.399Z,1008.74
2018-03-14T10:34:00.185Z,1008.73
2018-03-14T10:35:00.214Z,1008.72
2018-03-14T10:36:01.432Z,1008.70
2018-03-14T10:37:00.457Z,1008.73
2018-03-14T10:38:00.679Z,1008.72
2018-03-14T10:39:00.307Z,1008.72
2018-03-14T10:40:00.367Z,1008.72
2018-03-14T10:41:00.370Z,1008.71
2018-03-14T10:42:00.393Z,1008.73
2018-03-14T10:43:00.441Z,1008.68
2018-03-14T10:44:00.831Z,1008.66
2018-03-14T10:45:00.538Z,1008.65
2018-03-14T10:46:00.569Z,1008.65
2018-03-14T10:47:00.557Z,1008.63
2018-03-14T10:48:00.592Z,1008.60
2018-03-14T10:49:00.692Z,1008.60
2018-03-14T10:50:01.122Z,1008.59
2018-03-14T10:51:00.692Z,1008.57
2018-03-14T10:52:01.683Z,1008.56
2018-03-14T10:53:00.783Z,1008.55
2018-03-14T10:54:00.855Z,1008.50
2018-03-14T10:55:00.839Z,1008.48
2018-03-14T10:56:01.268Z,1008.49
2018-03-14T10:57:01.048Z,1008.47
2018-03-14T10:58:01.864Z,1008.46
2018-03-14T10:59:00.969Z,1008.48
2018-03-14T11:00:01.860Z,1008.49
2018-03-14T11:01:01.045Z,1008.49
2018-03-14T11:02:01.409Z,1008.49
2018-03-14T11:03:01.075Z,1008.44
2018-03-14T11:04:01.095Z,1008.42
2018-03-14T11:05:01.097Z,1008.41
2018-03-14T11:06:01.232Z,1008.39
2018-03-14T11:07:01.193Z,1008.42
2018-03-14T11:08:01.630Z,1008.37
2018-03-14T11:09:01.325Z,1008.34
2018-03-14T11:10:01.282Z,1008.31
2018-03-14T11:11:01.604Z,1008.30
2018-03-14T11:12:01.331Z,1008.25
2018-03-14T11:13:01.398Z,1008.24
2018-03-14T11:14:01.749Z,1008.24
2018-03-14T11:15:01.477Z,1008.24
2018-03-14T11:16:01.808Z,1008.25
2018-03-14T11:17:01.528Z,1008.25
2018-03-14T11:18:01.563Z,1008.25
2018-03-14T11:19:02.570Z,1008.28
2018-03-14T11:20:02.015Z,1008.24
2018-03-14T11:21:01.633Z,1008.25
2018-03-14T11:22:01.735Z,1008.25
2018-03-14T11:23:02.208Z,1008.21
2018-03-14T11:24:02.831Z,1008.21
2018-03-14T11:25:01.768Z,1008.22
2018-03-14T11:26:02.110Z,1008.24
2018-03-14T11:27:01.851Z,1008.24
2018-03-14T11:28:01.879Z,1008.22
2018-03-14T11:29:01.884Z,1008.22
2018-03-14T11:30:01.970Z,1008.23
2018-03-14T11:31:01.982Z,1008.19
2018-03-14T11:32:02.344Z,1008.16
2018-03-14T11:33:02.154Z,1008.10
2018-03-14T11:34:02.117Z,1008.09
2018-03-14T11:35:02.100Z,1008.05
2018-03-14T11:36:02.074Z,1008.04
2018-03-14T11:37:02.185Z,1008.02
2018-03-14T11:38:02.530Z,1007.99
2018-03-14T11:39:02.236Z,1008.00
2018-03-14T11:40:03.247Z,1008.04
2018-03-14T11:41:03.240Z,1007.95
2018-03-14T11:42:02.354Z,1007.94
2018-03-14T11:43:02.510Z,1007.94
2018-03-14T11:44:03.706Z,1007.91
2018-03-14T11:45:02.352Z,1007.90
2018-03-14T11:46:04.013Z,1007.91
2018-03-14T11:47:02.518Z,1007.88
2018-03-14T11:48:02.592Z,1007.83
2018-03-14T11:49:02.585Z,1007.85
2018-03-14T11:50:02.920Z,1007.82
2018-03-14T11:51:02.542Z,1007.83
2018-03-14T11:52:02.624Z,1007.80
2018-03-14T11:53:02.688Z,1007.78
2018-03-14T11:54:02.680Z,1007.76
2018-03-14T11:55:03.017Z,1007.76
2018-03-14T11:56:03.150Z,1007.69
2018-03-14T11:57:02.756Z,1007.67
2018-03-14T11:58:02.872Z,1007.65
2018-03-14T11:59:02.984Z,1007.63
2018-03-14T12:00:02.896Z,1007.61
2018-03-14T12:01:03.259Z,1007.61
2018-03-14T12:02:03.320Z,1007.57
2018-03-14T12:03:03.142Z,1007.52
2018-03-14T12:04:03.083Z,1007.55
2018-03-14T12:05:03.025Z,1007.51
2018-03-14T12:06:03.129Z,1007.49
2018-03-14T12:07:03.117Z,1007.49
2018-03-14T12:08:03.456Z,1007.48
2018-03-14T12:09:04.012Z,1007.45
2018-03-14T12:10:03.321Z,1007.44
2018-03-14T12:11:03.232Z,1007.40
2018-03-14T12:12:03.325Z,1007.38
2018-03-14T12:13:04.309Z,1007.33
2018-03-14T12:14:03.827Z,1007.34